sensor_id;sensor_type;location;lat;lon;timestamp;P1;durP1;ratioP1;P2;durP2;ratioP2
73869;SDS011;64924;42.140;24.762;2023-08-06T00:00:15;11.63;;;7.05;;
73869;SDS011;64924;42.140;24.762;2023-08-06T00:02:40;9.73;;;6.95;;
73869;SDS011;64924;42.140;24.762;2023-08-06T00:05:06;14.50;;;7.43;;
73869;SDS011;64924;42.140;24.762;2023-08-06T00:07:32;10.68;;;7.00;;
73869;SDS011;64924;42.140;24.762;2023-08-06T00:09:57;11.85;;;6.60;;
73869;SDS011;64924;42.140;24.762;2023-08-06T00:12:23;13.80;;;6.85;;
73869;SDS011;64924;42.140;24.762;2023-08-06T00:14:51;16.08;;;7.63;;
73869;SDS011;64924;42.140;24.762;2023-08-06T00:17:17;9.48;;;6.63;;
73869;SDS011;64924;42.140;24.762;2023-08-06T00:19:43;16.38;;;7.82;;
73869;SDS011;64924;42.140;24.762;2023-08-06T00:22:09;12.57;;;7.18;;
73869;SDS011;64924;42.140;24.762;2023-08-06T00:24:34;11.25;;;7.72;;
73869;SDS011;64924;42.140;24.762;2023-08-06T00:27:00;14.75;;;8.43;;
73869;SDS011;64924;42.140;24.762;2023-08-06T00:29:26;12.90;;;9.23;;
73869;SDS011;64924;42.140;24.762;2023-08-06T00:31:51;13.00;;;8.60;;
73869;SDS011;64924;42.140;24.762;2023-08-06T00:34:17;13.05;;;8.98;;
73869;SDS011;64924;42.140;24.762;2023-08-06T00:36:42;18.05;;;8.65;;
73869;SDS011;64924;42.140;24.762;2023-08-06T00:39:08;12.68;;;8.55;;
73869;SDS011;64924;42.140;24.762;2023-08-06T00:41:33;13.23;;;8.15;;
73869;SDS011;64924;42.140;24.762;2023-08-06T00:43:59;12.48;;;8.30;;
73869;SDS011;64924;42.140;24.762;2023-08-06T00:46:24;14.80;;;8.73;;
73869;SDS011;64924;42.140;24.762;2023-08-06T00:48:50;11.52;;;8.98;;
73869;SDS011;64924;42.140;24.762;2023-08-06T00:51:16;11.38;;;9.15;;
73869;SDS011;64924;42.140;24.762;2023-08-06T00:53:41;12.77;;;8.98;;
73869;SDS011;64924;42.140;24.762;2023-08-06T00:56:08;12.45;;;8.25;;
73869;SDS011;64924;42.140;24.762;2023-08-06T00:58:34;14.15;;;10.00;;
73869;SDS011;64924;42.140;24.762;2023-08-06T01:01:01;15.55;;;8.80;;
73869;SDS011;64924;42.140;24.762;2023-08-06T01:03:27;14.10;;;8.88;;
73869;SDS011;64924;42.140;24.762;2023-08-06T01:05:53;13.30;;;9.45;;
73869;SDS011;64924;42.140;24.762;2023-08-06T01:11:28;10.05;;;8.68;;
73869;SDS011;64924;42.140;24.762;2023-08-06T01:14:30;11.52;;;8.95;;
73869;SDS011;64924;42.140;24.762;2023-08-06T01:17:05;14.55;;;9.00;;
73869;SDS011;64924;42.140;24.762;2023-08-06T01:19:30;11.73;;;9.40;;
73869;SDS011;64924;42.140;24.762;2023-08-06T01:21:56;12.25;;;8.68;;
73869;SDS011;64924;42.140;24.762;2023-08-06T01:24:21;13.98;;;8.95;;
73869;SDS011;64924;42.140;24.762;2023-08-06T01:30:12;11.63;;;9.32;;
73869;SDS011;64924;42.140;24.762;2023-08-06T01:32:45;16.25;;;10.40;;
73869;SDS011;64924;42.140;24.762;2023-08-06T01:35:15;13.13;;;8.50;;
73869;SDS011;64924;42.140;24.762;2023-08-06T01:37:42;16.90;;;9.05;;
73869;SDS011;64924;42.140;24.762;2023-08-06T01:40:12;14.38;;;9.52;;
73869;SDS011;64924;42.140;24.762;2023-08-06T01:42:38;11.13;;;9.07;;
73869;SDS011;64924;42.140;24.762;2023-08-06T01:45:07;12.05;;;9.20;;
73869;SDS011;64924;42.140;24.762;2023-08-06T01:47:34;11.27;;;9.43;;
73869;SDS011;64924;42.140;24.762;2023-08-06T01:49:59;11.68;;;9.07;;
73869;SDS011;64924;42.140;24.762;2023-08-06T01:52:25;15.45;;;9.50;;
73869;SDS011;64924;42.140;24.762;2023-08-06T01:54:51;15.35;;;10.23;;
73869;SDS011;64924;42.140;24.762;2023-08-06T01:57:17;13.20;;;9.70;;
73869;SDS011;64924;42.140;24.762;2023-08-06T01:59:42;13.60;;;9.73;;
73869;SDS011;64924;42.140;24.762;2023-08-06T02:02:08;12.00;;;8.82;;
73869;SDS011;64924;42.140;24.762;2023-08-06T02:04:34;16.13;;;10.00;;
73869;SDS011;64924;42.140;24.762;2023-08-06T02:06:59;15.32;;;9.38;;
73869;SDS011;64924;42.140;24.762;2023-08-06T02:09:25;13.10;;;8.48;;
73869;SDS011;64924;42.140;24.762;2023-08-06T02:11:50;13.02;;;9.27;;
73869;SDS011;64924;42.140;24.762;2023-08-06T02:14:16;12.02;;;8.85;;
73869;SDS011;64924;42.140;24.762;2023-08-06T02:16:41;12.88;;;8.82;;
73869;SDS011;64924;42.140;24.762;2023-08-06T02:19:07;13.80;;;9.68;;
73869;SDS011;64924;42.140;24.762;2023-08-06T02:21:33;15.32;;;9.57;;
73869;SDS011;64924;42.140;24.762;2023-08-06T02:23:58;15.27;;;9.75;;
73869;SDS011;64924;42.140;24.762;2023-08-06T02:26:24;14.32;;;9.82;;
73869;SDS011;64924;42.140;24.762;2023-08-06T02:28:49;11.82;;;9.82;;
73869;SDS011;64924;42.140;24.762;2023-08-06T02:31:14;15.70;;;10.27;;
73869;SDS011;64924;42.140;24.762;2023-08-06T02:33:40;13.77;;;10.40;;
73869;SDS011;64924;42.140;24.762;2023-08-06T02:36:05;14.45;;;10.95;;
73869;SDS011;64924;42.140;24.762;2023-08-06T02:38:31;15.73;;;12.13;;
73869;SDS011;64924;42.140;24.762;2023-08-06T02:40:57;19.73;;;11.75;;
73869;SDS011;64924;42.140;24.762;2023-08-06T02:43:23;17.48;;;12.77;;
73869;SDS011;64924;42.140;24.762;2023-08-06T02:45:48;15.05;;;12.30;;
73869;SDS011;64924;42.140;24.762;2023-08-06T02:48:14;18.40;;;11.57;;
73869;SDS011;64924;42.140;24.762;2023-08-06T02:50:41;16.77;;;11.68;;
73869;SDS011;64924;42.140;24.762;2023-08-06T02:53:07;16.20;;;11.68;;
73869;SDS011;64924;42.140;24.762;2023-08-06T02:55:33;13.30;;;11.35;;
73869;SDS011;64924;42.140;24.762;2023-08-06T02:58:00;17.08;;;12.23;;
73869;SDS011;64924;42.140;24.762;2023-08-06T03:00:26;16.90;;;12.38;;
73869;SDS011;64924;42.140;24.762;2023-08-06T03:02:52;17.95;;;13.13;;
73869;SDS011;64924;42.140;24.762;2023-08-06T03:05:18;16.33;;;12.73;;
73869;SDS011;64924;42.140;24.762;2023-08-06T03:07:44;17.30;;;13.70;;
73869;SDS011;64924;42.140;24.762;2023-08-06T03:10:09;20.20;;;15.30;;
73869;SDS011;64924;42.140;24.762;2023-08-06T03:12:35;21.67;;;14.80;;
73869;SDS011;64924;42.140;24.762;2023-08-06T03:15:00;17.20;;;14.75;;
73869;SDS011;64924;42.140;24.762;2023-08-06T03:17:26;15.90;;;14.27;;
73869;SDS011;64924;42.140;24.762;2023-08-06T03:19:51;18.08;;;15.23;;
73869;SDS011;64924;42.140;24.762;2023-08-06T03:22:16;18.20;;;14.52;;
73869;SDS011;64924;42.140;24.762;2023-08-06T03:24:42;15.82;;;14.15;;
73869;SDS011;64924;42.140;24.762;2023-08-06T03:27:07;19.88;;;15.65;;
73869;SDS011;64924;42.140;24.762;2023-08-06T03:29:33;16.60;;;14.60;;
73869;SDS011;64924;42.140;24.762;2023-08-06T03:31:58;20.15;;;16.33;;
73869;SDS011;64924;42.140;24.762;2023-08-06T03:34:24;20.15;;;14.48;;
73869;SDS011;64924;42.140;24.762;2023-08-06T03:36:49;21.00;;;15.43;;
73869;SDS011;64924;42.140;24.762;2023-08-06T03:39:15;19.65;;;16.30;;
73869;SDS011;64924;42.140;24.762;2023-08-06T03:41:40;18.05;;;16.17;;
73869;SDS011;64924;42.140;24.762;2023-08-06T03:44:06;20.25;;;17.10;;
73869;SDS011;64924;42.140;24.762;2023-08-06T03:46:31;23.45;;;17.30;;
73869;SDS011;64924;42.140;24.762;2023-08-06T03:49:00;18.50;;;16.58;;
73869;SDS011;64924;42.140;24.762;2023-08-06T03:51:26;21.98;;;16.73;;
73869;SDS011;64924;42.140;24.762;2023-08-06T03:53:51;20.45;;;16.33;;
73869;SDS011;64924;42.140;24.762;2023-08-06T03:56:17;18.88;;;16.92;;
73869;SDS011;64924;42.140;24.762;2023-08-06T03:58:42;30.67;;;18.63;;
73869;SDS011;64924;42.140;24.762;2023-08-06T04:01:08;24.75;;;17.98;;
73869;SDS011;64924;42.140;24.762;2023-08-06T04:03:33;20.30;;;18.15;;
73869;SDS011;64924;42.140;24.762;2023-08-06T04:05:59;24.40;;;19.23;;
73869;SDS011;64924;42.140;24.762;2023-08-06T04:08:26;21.00;;;18.88;;
73869;SDS011;64924;42.140;24.762;2023-08-06T04:10:52;23.50;;;19.73;;
73869;SDS011;64924;42.140;24.762;2023-08-06T04:13:18;26.05;;;20.00;;
73869;SDS011;64924;42.140;24.762;2023-08-06T04:15:44;26.45;;;21.85;;
73869;SDS011;64924;42.140;24.762;2023-08-06T04:18:09;25.48;;;21.13;;
73869;SDS011;64924;42.140;24.762;2023-08-06T04:20:41;23.85;;;20.83;;
73869;SDS011;64924;42.140;24.762;2023-08-06T04:23:08;25.35;;;22.45;;
73869;SDS011;64924;42.140;24.762;2023-08-06T04:25:33;31.88;;;22.10;;
73869;SDS011;64924;42.140;24.762;2023-08-06T04:27:58;30.30;;;22.75;;
73869;SDS011;64924;42.140;24.762;2023-08-06T04:30:24;23.90;;;21.52;;
73869;SDS011;64924;42.140;24.762;2023-08-06T04:32:49;24.27;;;21.77;;
73869;SDS011;64924;42.140;24.762;2023-08-06T04:35:16;24.40;;;21.77;;
73869;SDS011;64924;42.140;24.762;2023-08-06T04:37:41;27.13;;;24.38;;
73869;SDS011;64924;42.140;24.762;2023-08-06T04:40:07;25.23;;;22.58;;
73869;SDS011;64924;42.140;24.762;2023-08-06T04:42:33;24.67;;;22.08;;
73869;SDS011;64924;42.140;24.762;2023-08-06T04:44:58;25.60;;;22.85;;
73869;SDS011;64924;42.140;24.762;2023-08-06T04:47:25;26.77;;;23.58;;
73869;SDS011;64924;42.140;24.762;2023-08-06T04:49:51;25.63;;;22.83;;
73869;SDS011;64924;42.140;24.762;2023-08-06T04:52:16;28.77;;;24.30;;
73869;SDS011;64924;42.140;24.762;2023-08-06T04:54:43;27.75;;;23.80;;
73869;SDS011;64924;42.140;24.762;2023-08-06T04:57:09;29.08;;;23.98;;
73869;SDS011;64924;42.140;24.762;2023-08-06T04:59:35;26.55;;;23.73;;
73869;SDS011;64924;42.140;24.762;2023-08-06T05:02:00;26.55;;;23.55;;
73869;SDS011;64924;42.140;24.762;2023-08-06T05:04:27;26.92;;;24.08;;
73869;SDS011;64924;42.140;24.762;2023-08-06T05:06:53;26.65;;;23.20;;
73869;SDS011;64924;42.140;24.762;2023-08-06T05:09:18;30.33;;;24.33;;
73869;SDS011;64924;42.140;24.762;2023-08-06T05:11:46;29.80;;;27.00;;
73869;SDS011;64924;42.140;24.762;2023-08-06T05:14:12;28.08;;;25.20;;
73869;SDS011;64924;42.140;24.762;2023-08-06T05:16:37;30.10;;;25.90;;
73869;SDS011;64924;42.140;24.762;2023-08-06T05:19:03;30.85;;;25.65;;
73869;SDS011;64924;42.140;24.762;2023-08-06T05:21:28;28.45;;;24.98;;
73869;SDS011;64924;42.140;24.762;2023-08-06T05:23:54;27.80;;;24.88;;
73869;SDS011;64924;42.140;24.762;2023-08-06T05:26:19;32.20;;;26.70;;
73869;SDS011;64924;42.140;24.762;2023-08-06T05:28:45;27.38;;;24.48;;
73869;SDS011;64924;42.140;24.762;2023-08-06T05:31:11;27.65;;;24.60;;
73869;SDS011;64924;42.140;24.762;2023-08-06T05:33:37;29.33;;;25.38;;
73869;SDS011;64924;42.140;24.762;2023-08-06T05:36:02;25.77;;;23.08;;
73869;SDS011;64924;42.140;24.762;2023-08-06T05:38:29;26.13;;;18.02;;
73869;SDS011;64924;42.140;24.762;2023-08-06T05:40:55;21.42;;;16.55;;
73869;SDS011;64924;42.140;24.762;2023-08-06T05:43:21;21.70;;;14.05;;
73869;SDS011;64924;42.140;24.762;2023-08-06T05:45:49;14.95;;;13.40;;
73869;SDS011;64924;42.140;24.762;2023-08-06T05:48:14;15.48;;;9.43;;
73869;SDS011;64924;42.140;24.762;2023-08-06T05:50:40;10.20;;;8.85;;
73869;SDS011;64924;42.140;24.762;2023-08-06T05:53:06;26.02;;;8.57;;
73869;SDS011;64924;42.140;24.762;2023-08-06T05:55:32;13.45;;;8.57;;
73869;SDS011;64924;42.140;24.762;2023-08-06T05:57:58;11.27;;;7.90;;
73869;SDS011;64924;42.140;24.762;2023-08-06T06:00:24;13.40;;;8.38;;
73869;SDS011;64924;42.140;24.762;2023-08-06T06:02:49;15.52;;;9.10;;
73869;SDS011;64924;42.140;24.762;2023-08-06T06:05:15;10.80;;;8.02;;
73869;SDS011;64924;42.140;24.762;2023-08-06T06:07:40;12.25;;;8.80;;
73869;SDS011;64924;42.140;24.762;2023-08-06T06:10:06;14.43;;;8.68;;
73869;SDS011;64924;42.140;24.762;2023-08-06T06:12:32;13.25;;;8.10;;
73869;SDS011;64924;42.140;24.762;2023-08-06T06:14:57;13.65;;;8.80;;
73869;SDS011;64924;42.140;24.762;2023-08-06T06:17:23;17.58;;;9.68;;
73869;SDS011;64924;42.140;24.762;2023-08-06T06:19:48;15.25;;;9.65;;
73869;SDS011;64924;42.140;24.762;2023-08-06T06:22:14;12.23;;;9.13;;
73869;SDS011;64924;42.140;24.762;2023-08-06T06:24:39;17.15;;;10.02;;
73869;SDS011;64924;42.140;24.762;2023-08-06T06:27:05;12.63;;;9.13;;
73869;SDS011;64924;42.140;24.762;2023-08-06T06:29:31;17.00;;;8.75;;
73869;SDS011;64924;42.140;24.762;2023-08-06T06:31:56;11.73;;;9.00;;
73869;SDS011;64924;42.140;24.762;2023-08-06T06:34:22;15.65;;;8.27;;
73869;SDS011;64924;42.140;24.762;2023-08-06T06:36:47;17.88;;;9.15;;
73869;SDS011;64924;42.140;24.762;2023-08-06T06:39:13;15.18;;;8.65;;
73869;SDS011;64924;42.140;24.762;2023-08-06T06:41:39;10.18;;;8.27;;
73869;SDS011;64924;42.140;24.762;2023-08-06T06:44:05;21.52;;;8.52;;
73869;SDS011;64924;42.140;24.762;2023-08-06T06:46:31;11.48;;;7.97;;
73869;SDS011;64924;42.140;24.762;2023-08-06T06:48:56;14.35;;;8.85;;
73869;SDS011;64924;42.140;24.762;2023-08-06T06:54:47;14.48;;;8.00;;
73869;SDS011;64924;42.140;24.762;2023-08-06T06:57:12;16.67;;;8.48;;
73869;SDS011;64924;42.140;24.762;2023-08-06T06:59:38;12.45;;;7.82;;
73869;SDS011;64924;42.140;24.762;2023-08-06T07:02:03;11.07;;;8.25;;
73869;SDS011;64924;42.140;24.762;2023-08-06T07:04:29;16.88;;;8.55;;
73869;SDS011;64924;42.140;24.762;2023-08-06T07:06:54;10.02;;;8.25;;
73869;SDS011;64924;42.140;24.762;2023-08-06T07:09:20;11.07;;;8.57;;
73869;SDS011;64924;42.140;24.762;2023-08-06T07:11:45;12.23;;;8.70;;
73869;SDS011;64924;42.140;24.762;2023-08-06T07:14:11;13.40;;;9.00;;
73869;SDS011;64924;42.140;24.762;2023-08-06T07:16:36;11.93;;;8.50;;
73869;SDS011;64924;42.140;24.762;2023-08-06T07:19:02;9.88;;;8.20;;
73869;SDS011;64924;42.140;24.762;2023-08-06T07:21:27;9.38;;;6.82;;
73869;SDS011;64924;42.140;24.762;2023-08-06T07:23:53;8.73;;;7.82;;
73869;SDS011;64924;42.140;24.762;2023-08-06T07:26:19;13.18;;;8.65;;
73869;SDS011;64924;42.140;24.762;2023-08-06T07:28:45;13.57;;;7.50;;
73869;SDS011;64924;42.140;24.762;2023-08-06T07:31:10;12.60;;;8.65;;
73869;SDS011;64924;42.140;24.762;2023-08-06T07:33:36;9.98;;;8.90;;
73869;SDS011;64924;42.140;24.762;2023-08-06T07:36:11;11.45;;;8.25;;
73869;SDS011;64924;42.140;24.762;2023-08-06T07:38:38;12.30;;;10.70;;
73869;SDS011;64924;42.140;24.762;2023-08-06T07:41:03;12.20;;;9.40;;
73869;SDS011;64924;42.140;24.762;2023-08-06T07:43:30;14.48;;;10.25;;
73869;SDS011;64924;42.140;24.762;2023-08-06T07:45:58;14.27;;;10.07;;
73869;SDS011;64924;42.140;24.762;2023-08-06T07:50:51;12.77;;;9.80;;
73869;SDS011;64924;42.140;24.762;2023-08-06T07:53:19;10.43;;;9.40;;
73869;SDS011;64924;42.140;24.762;2023-08-06T07:55:48;16.83;;;10.52;;
73869;SDS011;64924;42.140;24.762;2023-08-06T07:58:17;13.07;;;11.27;;
73869;SDS011;64924;42.140;24.762;2023-08-06T08:00:43;17.98;;;10.88;;
73869;SDS011;64924;42.140;24.762;2023-08-06T08:03:11;12.75;;;11.15;;
73869;SDS011;64924;42.140;24.762;2023-08-06T08:05:38;17.35;;;12.77;;
73869;SDS011;64924;42.140;24.762;2023-08-06T08:08:04;14.48;;;11.82;;
73869;SDS011;64924;42.140;24.762;2023-08-06T08:10:30;14.30;;;12.02;;
73869;SDS011;64924;42.140;24.762;2023-08-06T08:12:56;13.15;;;11.73;;
73869;SDS011;64924;42.140;24.762;2023-08-06T08:15:22;14.27;;;11.90;;
73869;SDS011;64924;42.140;24.762;2023-08-06T08:17:48;13.15;;;10.93;;
73869;SDS011;64924;42.140;24.762;2023-08-06T08:20:14;15.88;;;12.13;;
73869;SDS011;64924;42.140;24.762;2023-08-06T08:22:41;18.52;;;12.18;;
73869;SDS011;64924;42.140;24.762;2023-08-06T08:25:07;16.90;;;12.02;;
73869;SDS011;64924;42.140;24.762;2023-08-06T08:27:32;16.83;;;11.75;;
73869;SDS011;64924;42.140;24.762;2023-08-06T08:29:58;14.13;;;12.57;;
73869;SDS011;64924;42.140;24.762;2023-08-06T08:32:23;13.50;;;12.10;;
73869;SDS011;64924;42.140;24.762;2023-08-06T08:34:49;13.55;;;11.82;;
73869;SDS011;64924;42.140;24.762;2023-08-06T08:37:14;16.38;;;13.68;;
73869;SDS011;64924;42.140;24.762;2023-08-06T08:39:40;14.57;;;13.07;;
73869;SDS011;64924;42.140;24.762;2023-08-06T08:42:06;16.30;;;14.63;;
73869;SDS011;64924;42.140;24.762;2023-08-06T08:44:32;17.00;;;15.15;;
73869;SDS011;64924;42.140;24.762;2023-08-06T08:46:59;17.33;;;14.85;;
73869;SDS011;64924;42.140;24.762;2023-08-06T08:49:25;15.18;;;13.68;;
73869;SDS011;64924;42.140;24.762;2023-08-06T08:51:53;14.15;;;12.75;;
73869;SDS011;64924;42.140;24.762;2023-08-06T08:54:20;20.05;;;14.27;;
73869;SDS011;64924;42.140;24.762;2023-08-06T08:56:48;15.32;;;12.52;;
73869;SDS011;64924;42.140;24.762;2023-08-06T08:59:13;13.63;;;12.23;;
73869;SDS011;64924;42.140;24.762;2023-08-06T09:01:39;17.15;;;11.75;;
73869;SDS011;64924;42.140;24.762;2023-08-06T09:04:07;12.63;;;11.05;;
73869;SDS011;64924;42.140;24.762;2023-08-06T09:06:35;15.52;;;11.32;;
73869;SDS011;64924;42.140;24.762;2023-08-06T09:09:07;12.63;;;11.33;;
73869;SDS011;64924;42.140;24.762;2023-08-06T09:11:39;14.98;;;11.32;;
73869;SDS011;64924;42.140;24.762;2023-08-06T09:14:08;11.43;;;10.10;;
73869;SDS011;64924;42.140;24.762;2023-08-06T09:16:34;11.02;;;9.68;;
73869;SDS011;64924;42.140;24.762;2023-08-06T09:19:06;12.50;;;10.48;;
73869;SDS011;64924;42.140;24.762;2023-08-06T09:21:32;10.50;;;9.38;;
73869;SDS011;64924;42.140;24.762;2023-08-06T09:24:01;9.82;;;8.73;;
73869;SDS011;64924;42.140;24.762;2023-08-06T09:26:35;8.98;;;8.07;;
73869;SDS011;64924;42.140;24.762;2023-08-06T09:29:01;8.75;;;7.82;;
73869;SDS011;64924;42.140;24.762;2023-08-06T09:31:36;9.73;;;8.57;;
73869;SDS011;64924;42.140;24.762;2023-08-06T09:34:20;8.98;;;7.88;;
73869;SDS011;64924;42.140;24.762;2023-08-06T09:36:56;8.68;;;7.03;;
73869;SDS011;64924;42.140;24.762;2023-08-06T09:39:26;9.00;;;5.90;;
73869;SDS011;64924;42.140;24.762;2023-08-06T09:41:55;6.78;;;4.72;;
73869;SDS011;64924;42.140;24.762;2023-08-06T09:47:00;6.70;;;4.63;;
73869;SDS011;64924;42.140;24.762;2023-08-06T09:49:27;5.35;;;4.75;;
73869;SDS011;64924;42.140;24.762;2023-08-06T09:51:54;6.40;;;5.57;;
73869;SDS011;64924;42.140;24.762;2023-08-06T09:56:48;6.85;;;4.97;;
73869;SDS011;64924;42.140;24.762;2023-08-06T09:59:15;6.13;;;5.53;;
73869;SDS011;64924;42.140;24.762;2023-08-06T10:01:42;6.00;;;5.35;;
73869;SDS011;64924;42.140;24.762;2023-08-06T10:04:08;8.88;;;6.22;;
73869;SDS011;64924;42.140;24.762;2023-08-06T10:06:36;7.85;;;6.97;;
73869;SDS011;64924;42.140;24.762;2023-08-06T10:09:02;7.47;;;6.78;;
73869;SDS011;64924;42.140;24.762;2023-08-06T10:11:28;7.93;;;6.97;;
73869;SDS011;64924;42.140;24.762;2023-08-06T10:14:00;9.90;;;8.20;;
73869;SDS011;64924;42.140;24.762;2023-08-06T10:16:31;8.35;;;7.60;;
73869;SDS011;64924;42.140;24.762;2023-08-06T10:18:58;9.20;;;8.30;;
73869;SDS011;64924;42.140;24.762;2023-08-06T10:21:24;8.90;;;8.10;;
73869;SDS011;64924;42.140;24.762;2023-08-06T10:23:55;9.23;;;7.85;;
73869;SDS011;64924;42.140;24.762;2023-08-06T10:26:24;8.63;;;7.53;;
73869;SDS011;64924;42.140;24.762;2023-08-06T10:28:51;8.32;;;7.53;;
73869;SDS011;64924;42.140;24.762;2023-08-06T10:31:17;7.97;;;7.18;;
73869;SDS011;64924;42.140;24.762;2023-08-06T10:33:46;8.68;;;6.63;;
73869;SDS011;64924;42.140;24.762;2023-08-06T10:36:13;8.00;;;7.28;;
73869;SDS011;64924;42.140;24.762;2023-08-06T10:38:46;7.07;;;6.15;;
73869;SDS011;64924;42.140;24.762;2023-08-06T10:41:23;6.68;;;6.07;;
73869;SDS011;64924;42.140;24.762;2023-08-06T10:44:06;6.85;;;6.20;;
73869;SDS011;64924;42.140;24.762;2023-08-06T10:46:33;10.60;;;6.68;;
73869;SDS011;64924;42.140;24.762;2023-08-06T10:48:59;8.70;;;7.18;;
73869;SDS011;64924;42.140;24.762;2023-08-06T10:51:24;7.18;;;6.55;;
73869;SDS011;64924;42.140;24.762;2023-08-06T10:53:50;6.28;;;5.68;;
73869;SDS011;64924;42.140;24.762;2023-08-06T10:56:20;6.82;;;6.05;;
73869;SDS011;64924;42.140;24.762;2023-08-06T10:58:47;7.43;;;6.53;;
73869;SDS011;64924;42.140;24.762;2023-08-06T11:01:13;7.00;;;5.95;;
73869;SDS011;64924;42.140;24.762;2023-08-06T11:03:40;7.38;;;6.68;;
73869;SDS011;64924;42.140;24.762;2023-08-06T11:06:06;6.95;;;6.35;;
73869;SDS011;64924;42.140;24.762;2023-08-06T11:08:33;6.55;;;5.95;;
73869;SDS011;64924;42.140;24.762;2023-08-06T11:11:13;6.75;;;6.10;;
73869;SDS011;64924;42.140;24.762;2023-08-06T11:13:40;6.45;;;5.70;;
73869;SDS011;64924;42.140;24.762;2023-08-06T11:16:12;6.40;;;5.90;;
73869;SDS011;64924;42.140;24.762;2023-08-06T11:18:39;6.75;;;6.05;;
73869;SDS011;64924;42.140;24.762;2023-08-06T11:21:07;6.10;;;5.50;;
73869;SDS011;64924;42.140;24.762;2023-08-06T11:23:33;6.45;;;5.75;;
73869;SDS011;64924;42.140;24.762;2023-08-06T11:26:00;5.22;;;4.72;;
73869;SDS011;64924;42.140;24.762;2023-08-06T11:28:26;5.50;;;5.00;;
73869;SDS011;64924;42.140;24.762;2023-08-06T11:30:51;5.95;;;4.90;;
73869;SDS011;64924;42.140;24.762;2023-08-06T11:33:24;7.13;;;5.75;;
73869;SDS011;64924;42.140;24.762;2023-08-06T11:35:56;6.75;;;5.22;;
73869;SDS011;64924;42.140;24.762;2023-08-06T11:38:32;5.20;;;4.70;;
73869;SDS011;64924;42.140;24.762;2023-08-06T11:40:58;7.43;;;5.22;;
73869;SDS011;64924;42.140;24.762;2023-08-06T11:43:23;4.95;;;4.55;;
73869;SDS011;64924;42.140;24.762;2023-08-06T11:45:49;4.72;;;4.18;;
73869;SDS011;64924;42.140;24.762;2023-08-06T11:48:16;7.05;;;4.45;;
73869;SDS011;64924;42.140;24.762;2023-08-06T11:50:43;8.88;;;4.45;;
73869;SDS011;64924;42.140;24.762;2023-08-06T11:53:11;6.15;;;4.80;;
73869;SDS011;64924;42.140;24.762;2023-08-06T11:55:38;4.47;;;3.88;;
73869;SDS011;64924;42.140;24.762;2023-08-06T11:58:04;6.82;;;4.10;;
73869;SDS011;64924;42.140;24.762;2023-08-06T12:00:30;7.13;;;4.10;;
73869;SDS011;64924;42.140;24.762;2023-08-06T12:02:55;5.38;;;3.58;;
73869;SDS011;64924;42.140;24.762;2023-08-06T12:05:22;3.60;;;2.92;;
73869;SDS011;64924;42.140;24.762;2023-08-06T12:07:53;4.65;;;3.40;;
73869;SDS011;64924;42.140;24.762;2023-08-06T12:10:21;5.32;;;3.67;;
73869;SDS011;64924;42.140;24.762;2023-08-06T12:12:47;7.70;;;3.40;;
73869;SDS011;64924;42.140;24.762;2023-08-06T12:15:13;4.40;;;3.53;;
73869;SDS011;64924;42.140;24.762;2023-08-06T12:17:39;5.60;;;5.05;;
73869;SDS011;64924;42.140;24.762;2023-08-06T12:20:05;3.67;;;3.10;;
73869;SDS011;64924;42.140;24.762;2023-08-06T12:22:32;4.18;;;3.72;;
73869;SDS011;64924;42.140;24.762;2023-08-06T12:25:01;3.50;;;3.20;;
73869;SDS011;64924;42.140;24.762;2023-08-06T12:27:28;4.95;;;3.13;;
73869;SDS011;64924;42.140;24.762;2023-08-06T12:29:54;4.25;;;2.90;;
73869;SDS011;64924;42.140;24.762;2023-08-06T12:32:20;5.47;;;3.22;;
73869;SDS011;64924;42.140;24.762;2023-08-06T12:34:45;4.78;;;2.63;;
73869;SDS011;64924;42.140;24.762;2023-08-06T12:37:11;5.35;;;3.10;;
73869;SDS011;64924;42.140;24.762;2023-08-06T12:39:36;3.33;;;3.00;;
73869;SDS011;64924;42.140;24.762;2023-08-06T12:42:02;4.30;;;2.92;;
73869;SDS011;64924;42.140;24.762;2023-08-06T12:44:29;3.95;;;3.03;;
73869;SDS011;64924;42.140;24.762;2023-08-06T12:46:55;3.85;;;2.50;;
73869;SDS011;64924;42.140;24.762;2023-08-06T12:49:21;3.15;;;2.63;;
73869;SDS011;64924;42.140;24.762;2023-08-06T12:51:47;4.10;;;2.65;;
73869;SDS011;64924;42.140;24.762;2023-08-06T12:54:22;4.60;;;2.55;;
73869;SDS011;64924;42.140;24.762;2023-08-06T12:56:48;3.40;;;2.42;;
73869;SDS011;64924;42.140;24.762;2023-08-06T12:59:15;4.47;;;2.53;;
73869;SDS011;64924;42.140;24.762;2023-08-06T13:01:41;5.20;;;2.65;;
73869;SDS011;64924;42.140;24.762;2023-08-06T13:04:08;4.22;;;2.88;;
73869;SDS011;64924;42.140;24.762;2023-08-06T13:06:33;4.82;;;2.65;;
73869;SDS011;64924;42.140;24.762;2023-08-06T13:09:20;6.82;;;4.30;;
73869;SDS011;64924;42.140;24.762;2023-08-06T13:11:45;4.93;;;3.25;;
73869;SDS011;64924;42.140;24.762;2023-08-06T13:14:12;4.13;;;3.05;;
73869;SDS011;64924;42.140;24.762;2023-08-06T13:16:40;4.22;;;3.22;;
73869;SDS011;64924;42.140;24.762;2023-08-06T13:19:07;3.50;;;3.20;;
73869;SDS011;64924;42.140;24.762;2023-08-06T13:21:34;3.47;;;2.83;;
73869;SDS011;64924;42.140;24.762;2023-08-06T13:24:04;4.70;;;2.58;;
73869;SDS011;64924;42.140;24.762;2023-08-06T13:26:29;3.60;;;2.80;;
73869;SDS011;64924;42.140;24.762;2023-08-06T13:28:58;8.25;;;3.38;;
73869;SDS011;64924;42.140;24.762;2023-08-06T13:31:26;4.25;;;3.17;;
73869;SDS011;64924;42.140;24.762;2023-08-06T13:33:53;2.92;;;2.55;;
73869;SDS011;64924;42.140;24.762;2023-08-06T13:36:20;5.95;;;3.33;;
73869;SDS011;64924;42.140;24.762;2023-08-06T13:38:46;4.22;;;2.60;;
73869;SDS011;64924;42.140;24.762;2023-08-06T13:41:12;5.25;;;2.80;;
73869;SDS011;64924;42.140;24.762;2023-08-06T13:43:38;3.45;;;2.90;;
73869;SDS011;64924;42.140;24.762;2023-08-06T13:46:04;4.57;;;2.78;;
73869;SDS011;64924;42.140;24.762;2023-08-06T13:48:29;6.95;;;4.35;;
73869;SDS011;64924;42.140;24.762;2023-08-06T13:50:55;5.38;;;3.70;;
73869;SDS011;64924;42.140;24.762;2023-08-06T13:53:20;15.88;;;7.18;;
73869;SDS011;64924;42.140;24.762;2023-08-06T13:55:46;7.38;;;3.33;;
73869;SDS011;64924;42.140;24.762;2023-08-06T13:58:11;4.63;;;2.50;;
73869;SDS011;64924;42.140;24.762;2023-08-06T14:00:36;5.03;;;2.65;;
73869;SDS011;64924;42.140;24.762;2023-08-06T14:03:02;4.80;;;2.75;;
73869;SDS011;64924;42.140;24.762;2023-08-06T14:05:28;3.58;;;2.30;;
73869;SDS011;64924;42.140;24.762;2023-08-06T14:07:53;3.47;;;2.53;;
73869;SDS011;64924;42.140;24.762;2023-08-06T14:10:19;3.17;;;2.40;;
73869;SDS011;64924;42.140;24.762;2023-08-06T14:12:44;4.57;;;2.53;;
73869;SDS011;64924;42.140;24.762;2023-08-06T14:15:10;2.95;;;2.00;;
73869;SDS011;64924;42.140;24.762;2023-08-06T14:17:36;3.08;;;2.10;;
73869;SDS011;64924;42.140;24.762;2023-08-06T14:20:03;2.63;;;1.83;;
73869;SDS011;64924;42.140;24.762;2023-08-06T14:22:29;5.80;;;2.97;;
73869;SDS011;64924;42.140;24.762;2023-08-06T14:24:56;3.80;;;2.50;;
73869;SDS011;64924;42.140;24.762;2023-08-06T14:27:23;3.22;;;2.05;;
73869;SDS011;64924;42.140;24.762;2023-08-06T14:29:48;5.53;;;2.10;;
73869;SDS011;64924;42.140;24.762;2023-08-06T14:32:14;2.92;;;2.20;;
73869;SDS011;64924;42.140;24.762;2023-08-06T14:34:42;3.10;;;2.53;;